createdAt,value
2023-11-23T00:00:17.320Z,97747.44
2023-11-23T00:02:44.114Z,97767.38
2023-11-23T00:05:11.155Z,97755.22
2023-11-23T00:07:37.898Z,97746.94
2023-11-23T00:10:06.906Z,97753.41
2023-11-23T00:12:33.723Z,97743.91
2023-11-23T00:15:00.569Z,97742.50
2023-11-23T00:17:27.324Z,97741.34
2023-11-23T00:19:53.999Z,97734.22
2023-11-23T00:22:20.736Z,97734.34
2023-11-23T00:24:47.385Z,97740.63
2023-11-23T00:27:15.440Z,97730.94
2023-11-23T00:29:42.208Z,97741.34
2023-11-23T00:32:09.033Z,97739.78
2023-11-23T00:34:35.775Z,97748.94
2023-11-23T00:37:02.475Z,97747.78
2023-11-23T00:39:29.276Z,97745.13
2023-11-23T00:41:56.030Z,97751.81
2023-11-23T00:44:24.100Z,97751.81
2023-11-23T00:46:50.774Z,97750.63
2023-11-23T00:49:17.512Z,97748.06
2023-11-23T00:51:44.316Z,97753.13
2023-11-23T00:54:11.045Z,97747.63
2023-11-23T00:56:37.817Z,97749.88
2023-11-23T00:59:04.733Z,97750.34
2023-11-23T01:01:32.825Z,97756.84
2023-11-23T01:03:59.744Z,97755.31
2023-11-23T01:06:27.439Z,97767.13
2023-11-23T01:08:54.116Z,97754.81
2023-11-23T01:11:20.787Z,97754.72
2023-11-23T01:13:47.582Z,97757.00
2023-11-23T01:16:14.261Z,97758.50
2023-11-23T01:18:42.312Z,97764.44
2023-11-23T01:21:09.061Z,97749.94
2023-11-23T01:23:35.746Z,97759.59
2023-11-23T01:26:02.462Z,97755.50
2023-11-23T01:28:29.139Z,97751.97
2023-11-23T01:31:20.556Z,97757.66
2023-11-23T01:34:13.984Z,97759.00
2023-11-23T01:36:40.750Z,97754.44
2023-11-23T01:39:07.562Z,97758.22
2023-11-23T01:41:34.274Z,97757.34
2023-11-23T01:44:01.281Z,97757.47
2023-11-23T01:46:28.032Z,97764.09
2023-11-23T01:48:55.165Z,97757.88
2023-11-23T01:51:23.357Z,97767.75
2023-11-23T01:53:50.072Z,97775.78
2023-11-23T01:56:16.834Z,97769.09
2023-11-23T01:58:43.557Z,97770.81
2023-11-23T02:01:10.277Z,97767.88
2023-11-23T02:03:37.389Z,97766.16
2023-11-23T02:06:05.026Z,97777.16
2023-11-23T02:08:33.048Z,97769.03
2023-11-23T02:10:59.802Z,97767.97
2023-11-23T02:13:26.480Z,97773.00
2023-11-23T02:15:53.729Z,97769.03
2023-11-23T02:18:20.548Z,97771.00
2023-11-23T02:20:47.290Z,97767.28
2023-11-23T02:23:13.983Z,97790.44
2023-11-23T02:25:42.069Z,97791.97
2023-11-23T02:28:08.772Z,97787.13
2023-11-23T02:30:35.520Z,97793.69
2023-11-23T02:33:02.306Z,97792.00
2023-11-23T02:35:29.681Z,97787.72
2023-11-23T02:37:56.351Z,97787.25
2023-11-23T02:40:23.125Z,97783.78
2023-11-23T02:42:51.161Z,97793.63
2023-11-23T02:45:17.961Z,97789.84
2023-11-23T02:47:44.706Z,97794.72
2023-11-23T02:50:11.972Z,97798.06
2023-11-23T02:52:38.638Z,97790.81
2023-11-23T02:55:06.209Z,97795.13
2023-11-23T02:57:32.951Z,97796.59
2023-11-23T03:00:01.024Z,97797.63
2023-11-23T03:02:27.801Z,97793.97
2023-11-23T03:04:54.531Z,97793.69
2023-11-23T03:07:21.208Z,97794.53
2023-11-23T03:09:47.920Z,97785.41
2023-11-23T03:12:14.629Z,97774.50
2023-11-23T03:14:41.318Z,97778.72
2023-11-23T03:17:09.524Z,97786.22
2023-11-23T03:19:36.314Z,97779.19
2023-11-23T03:22:03.341Z,97795.34
2023-11-23T03:24:30.123Z,97786.88
2023-11-23T03:26:56.866Z,97795.56
2023-11-23T03:29:23.594Z,97798.34
2023-11-23T03:31:51.421Z,97794.53
2023-11-23T03:34:19.501Z,97804.06
2023-11-23T03:36:46.202Z,97797.88
2023-11-23T03:39:13.088Z,97808.69
2023-11-23T03:41:40.393Z,97808.66
2023-11-23T03:44:07.090Z,97805.09
2023-11-23T03:46:33.773Z,97795.59
2023-11-23T03:49:00.510Z,97799.41
2023-11-23T03:51:28.550Z,97805.16
2023-11-23T03:53:55.394Z,97789.31
2023-11-23T03:56:22.144Z,97802.84
2023-11-23T03:58:48.992Z,97797.25
2023-11-23T04:01:15.914Z,97797.25
2023-11-23T04:03:42.716Z,97809.97
2023-11-23T04:06:09.743Z,97819.34
2023-11-23T04:08:38.307Z,97807.75
2023-11-23T04:11:05.711Z,97810.38
2023-11-23T04:13:32.433Z,97816.53
2023-11-23T04:15:59.176Z,97809.81
2023-11-23T04:18:25.858Z,97817.59
2023-11-23T04:20:52.691Z,97816.06
2023-11-23T04:23:19.367Z,97815.81
2023-11-23T04:25:47.459Z,97813.34
2023-11-23T04:28:14.158Z,97803.03
2023-11-23T04:30:40.858Z,97804.72
2023-11-23T04:33:07.711Z,97804.19
2023-11-23T04:35:34.445Z,97797.25
2023-11-23T04:38:01.133Z,97796.13
2023-11-23T04:40:27.783Z,97800.84
2023-11-23T04:42:55.856Z,97801.00
2023-11-23T04:45:22.649Z,97797.56
2023-11-23T04:47:49.402Z,97798.00
2023-11-23T04:50:18.131Z,97799.25
2023-11-23T04:52:46.796Z,97798.31
2023-11-23T04:55:13.504Z,97800.56
2023-11-23T04:57:40.198Z,97798.34
2023-11-23T05:00:09.591Z,97792.41
2023-11-23T05:02:36.385Z,97797.09
2023-11-23T05:05:03.222Z,97797.53
2023-11-23T05:07:29.920Z,97808.06
2023-11-23T05:09:56.598Z,97809.22
2023-11-23T05:12:23.325Z,97819.25
2023-11-23T05:14:50.136Z,97825.06
2023-11-23T05:17:18.150Z,97826.47
2023-11-23T05:19:44.861Z,97836.59
2023-11-23T05:22:11.612Z,97825.94
2023-11-23T05:24:38.350Z,97831.28
2023-11-23T05:27:05.481Z,97831.94
2023-11-23T05:29:32.220Z,97842.13
2023-11-23T05:31:58.942Z,97840.97
2023-11-23T05:34:26.982Z,97837.34
2023-11-23T05:36:53.710Z,97841.38
2023-11-23T05:39:20.831Z,97843.97
2023-11-23T05:41:47.608Z,97845.34
2023-11-23T05:44:14.342Z,97853.09
2023-11-23T05:46:41.071Z,97851.50
2023-11-23T05:49:08.250Z,97842.38
2023-11-23T05:51:36.396Z,97855.38
2023-11-23T05:54:03.246Z,97852.19
2023-11-23T05:56:29.977Z,97848.78
2023-11-23T05:58:56.644Z,97846.28
2023-11-23T06:01:23.315Z,97851.41
2023-11-23T06:03:50.200Z,97847.97
2023-11-23T06:06:20.451Z,97848.16
2023-11-23T06:08:48.717Z,97842.03
2023-11-23T06:11:15.409Z,97842.41
2023-11-23T06:13:44.035Z,97846.25
2023-11-23T06:16:12.039Z,97848.25
2023-11-23T06:18:38.887Z,97847.72
2023-11-23T06:21:06.012Z,97841.41
2023-11-23T06:23:32.713Z,97841.75
2023-11-23T06:26:00.780Z,97843.44
2023-11-23T06:28:27.455Z,97844.41
2023-11-23T06:30:54.178Z,97849.41
2023-11-23T06:33:20.976Z,97853.09
2023-11-23T06:35:47.867Z,97850.44
2023-11-23T06:38:14.546Z,97853.88
2023-11-23T06:40:41.286Z,97861.06
2023-11-23T06:43:09.303Z,97862.13
2023-11-23T06:45:35.987Z,97862.94
2023-11-23T06:48:02.841Z,97859.22
2023-11-23T06:50:29.697Z,97856.38
2023-11-23T06:52:56.350Z,97862.56
2023-11-23T06:55:23.097Z,97857.50
2023-11-23T06:57:49.901Z,97855.25
2023-11-23T07:00:18.717Z,97865.78
2023-11-23T07:02:45.423Z,97864.00
2023-11-23T07:05:12.248Z,97857.56
2023-11-23T07:07:38.939Z,97863.00
2023-11-23T07:10:06.769Z,97857.69
2023-11-23T07:12:33.477Z,97876.16
2023-11-23T07:15:00.414Z,97869.81
2023-11-23T07:17:28.506Z,97880.28
2023-11-23T07:19:55.276Z,97882.19
2023-11-23T07:22:21.971Z,97882.19
2023-11-23T07:24:48.692Z,97884.94
2023-11-23T07:27:15.497Z,97884.47
2023-11-23T07:29:42.259Z,97891.28
2023-11-23T07:32:09.000Z,97885.69
2023-11-23T07:34:37.988Z,97897.38
2023-11-23T07:37:04.656Z,97887.72
2023-11-23T07:39:31.382Z,97880.75
2023-11-23T07:41:58.172Z,97879.34
2023-11-23T07:44:24.932Z,97884.91
2023-11-23T07:46:51.611Z,97882.06
2023-11-23T07:49:18.381Z,97892.31
2023-11-23T07:51:46.552Z,97881.28
2023-11-23T07:54:13.265Z,97888.00
2023-11-23T07:56:39.957Z,97879.25
2023-11-23T07:59:06.649Z,97884.66
2023-11-23T08:01:33.377Z,97883.31
2023-11-23T08:04:00.300Z,97877.50
2023-11-23T08:06:27.138Z,97892.88
2023-11-23T08:08:55.190Z,97890.28
2023-11-23T08:11:21.970Z,97903.94
2023-11-23T08:13:48.622Z,97904.13
2023-11-23T08:16:15.405Z,97907.22
2023-11-23T08:18:49.578Z,97910.50
2023-11-23T08:21:17.085Z,97902.41
2023-11-23T08:23:43.816Z,97910.19
2023-11-23T08:26:12.004Z,97896.28
2023-11-23T08:28:38.788Z,97895.28
2023-11-23T08:31:07.600Z,97888.19
2023-11-23T08:33:34.327Z,97889.88
2023-11-23T08:36:01.162Z,97896.53
2023-11-23T08:38:27.867Z,97893.31
2023-11-23T08:40:54.576Z,97895.03
2023-11-23T08:43:22.637Z,97893.56
2023-11-23T08:45:49.378Z,97891.63
2023-11-23T08:48:16.147Z,97890.63
2023-11-23T08:50:42.891Z,97893.59
2023-11-23T08:53:09.605Z,97887.38
2023-11-23T08:55:36.340Z,97899.97
2023-11-23T08:58:03.068Z,97895.09
2023-11-23T09:00:31.204Z,97897.16
2023-11-23T09:02:58.036Z,97891.47
2023-11-23T09:05:24.946Z,97893.97
2023-11-23T09:07:51.753Z,97892.72
2023-11-23T09:10:18.631Z,97888.41
2023-11-23T09:12:45.302Z,97890.25
2023-11-23T09:15:12.073Z,97887.59
2023-11-23T09:17:40.206Z,97885.59
2023-11-23T09:20:08.468Z,97892.53
2023-11-23T09:22:35.320Z,97894.59
2023-11-23T09:25:02.106Z,97898.16
2023-11-23T09:27:28.870Z,97890.22
2023-11-23T09:29:55.650Z,97892.72
2023-11-23T09:32:22.389Z,97890.72
2023-11-23T09:34:50.390Z,97889.69
2023-11-23T09:37:17.150Z,97900.31
2023-11-23T09:39:43.984Z,97894.13
2023-11-23T09:42:10.696Z,97896.91
2023-11-23T09:44:37.635Z,97893.66
2023-11-23T09:47:04.934Z,97890.22
2023-11-23T09:49:31.669Z,97900.16
2023-11-23T09:51:59.705Z,97894.69
2023-11-23T09:54:26.505Z,97885.84
2023-11-23T09:56:53.405Z,97881.19
2023-11-23T09:59:20.108Z,97881.81
2023-11-23T10:01:47.012Z,97877.94
2023-11-23T10:04:13.887Z,97873.03
2023-11-23T10:06:40.733Z,97867.91
2023-11-23T10:09:08.991Z,97871.19
2023-11-23T10:11:35.696Z,97866.06
2023-11-23T10:14:02.412Z,97866.25
2023-11-23T10:16:31.386Z,97866.34
2023-11-23T10:18:58.169Z,97868.06
2023-11-23T10:21:24.939Z,97869.88
2023-11-23T10:23:51.607Z,97870.00
2023-11-23T10:26:19.639Z,97864.75
2023-11-23T10:28:46.334Z,97857.81
2023-11-23T10:31:14.059Z,97861.56
2023-11-23T10:33:41.052Z,97847.22
2023-11-23T10:36:08.364Z,97841.91
2023-11-23T10:38:43.238Z,97837.19
2023-11-23T10:41:11.341Z,97837.22
2023-11-23T10:43:39.339Z,97832.50
2023-11-23T10:46:07.941Z,97833.94
2023-11-23T10:48:34.737Z,97827.97
2023-11-23T10:51:02.791Z,97826.34
2023-11-23T10:53:29.895Z,97834.34
2023-11-23T10:55:57.002Z,97825.72
2023-11-23T10:58:23.658Z,97825.50
2023-11-23T11:00:51.749Z,97819.53
2023-11-23T11:03:18.449Z,97818.53
2023-11-23T11:05:48.201Z,97814.47
2023-11-23T11:08:17.686Z,97821.81
2023-11-23T11:10:48.111Z,97806.88
2023-11-23T11:13:16.181Z,97820.38
2023-11-23T11:15:51.117Z,97813.41
2023-11-23T11:18:21.331Z,97809.13
2023-11-23T11:20:59.620Z,97801.34
2023-11-23T11:23:36.451Z,97795.63
2023-11-23T11:26:06.943Z,97799.69
2023-11-23T11:28:33.807Z,97787.59
2023-11-23T11:31:07.608Z,97780.59
2023-11-23T11:33:34.518Z,97779.03
2023-11-23T11:36:01.311Z,97777.47
2023-11-23T11:38:28.086Z,97766.31
2023-11-23T11:40:54.765Z,97766.88
2023-11-23T11:43:21.952Z,97768.97
2023-11-23T11:45:48.646Z,97749.13
2023-11-23T11:48:16.789Z,97753.00
2023-11-23T11:50:43.485Z,97746.22
2023-11-23T11:53:10.170Z,97744.72
2023-11-23T11:55:36.892Z,97743.50
2023-11-23T11:58:05.687Z,97738.50
2023-11-23T12:00:34.781Z,97736.44
2023-11-23T12:03:01.628Z,97734.25
2023-11-23T12:05:29.909Z,97730.63
2023-11-23T12:07:56.683Z,97730.31
2023-11-23T12:10:23.375Z,97733.69
2023-11-23T12:12:50.100Z,97726.78
2023-11-23T12:15:17.657Z,97710.41
2023-11-23T12:17:50.865Z,97708.59
2023-11-23T12:20:17.713Z,97706.69
2023-11-23T12:22:45.725Z,97705.75
2023-11-23T12:25:12.425Z,97705.19
2023-11-23T12:27:41.965Z,97702.56
2023-11-23T12:30:09.492Z,97691.13
2023-11-23T12:32:36.219Z,97699.38
2023-11-23T12:35:03.108Z,97686.22
2023-11-23T12:37:29.801Z,97701.19
2023-11-23T12:39:57.837Z,97689.75
2023-11-23T12:42:24.671Z,97692.78
2023-11-23T12:44:51.561Z,97678.88
2023-11-23T12:47:18.364Z,97679.41
2023-11-23T12:49:45.078Z,97663.97
2023-11-23T12:52:11.796Z,97652.09
2023-11-23T12:54:38.541Z,97647.19
2023-11-23T12:57:06.739Z,97639.09
2023-11-23T12:59:33.486Z,97635.88
2023-11-23T13:02:00.366Z,97634.88
2023-11-23T13:04:27.250Z,97630.00
2023-11-23T13:06:53.984Z,97617.63
2023-11-23T13:09:20.739Z,97623.41
2023-11-23T13:11:47.446Z,97617.19
2023-11-23T13:14:15.519Z,97608.78
2023-11-23T13:16:42.216Z,97610.78
2023-11-23T13:19:17.233Z,97610.38
2023-11-23T13:21:53.476Z,97607.50
2023-11-23T13:24:20.432Z,97597.66
2023-11-23T13:26:47.144Z,97604.28
2023-11-23T13:29:15.242Z,97601.41
2023-11-23T13:31:41.980Z,97600.19
2023-11-23T13:34:08.725Z,97596.69
2023-11-23T13:36:35.498Z,97585.25
2023-11-23T13:39:02.636Z,97594.41
2023-11-23T13:41:29.339Z,97588.38
2023-11-23T13:43:56.066Z,97584.25
2023-11-23T13:46:24.135Z,97580.41
2023-11-23T13:48:50.882Z,97577.69
2023-11-23T13:51:17.577Z,97578.41
2023-11-23T13:53:44.378Z,97572.75
2023-11-23T13:56:11.075Z,97571.16
2023-11-23T13:58:37.785Z,97576.25
2023-11-23T14:01:04.577Z,97572.13
2023-11-23T14:03:32.714Z,97573.78
2023-11-23T14:05:59.471Z,97565.75
2023-11-23T14:08:26.178Z,97560.06
2023-11-23T14:10:52.835Z,97556.16
2023-11-23T14:13:19.578Z,97554.25
2023-11-23T14:15:46.443Z,97552.69
2023-11-23T14:18:13.339Z,97553.38
2023-11-23T14:20:41.576Z,97562.63
2023-11-23T14:23:08.260Z,97560.75
2023-11-23T14:25:35.008Z,97557.44
2023-11-23T14:28:01.782Z,97559.78
2023-11-23T14:30:28.587Z,97557.72
2023-11-23T14:32:55.461Z,97563.00
2023-11-23T14:35:22.962Z,97551.41
2023-11-23T14:37:51.113Z,97551.31
2023-11-23T14:40:17.913Z,97544.66
2023-11-23T14:42:55.717Z,97546.47
2023-11-23T14:45:24.014Z,97543.31
2023-11-23T14:47:50.769Z,97553.72
2023-11-23T14:50:17.673Z,97551.06
2023-11-23T14:52:44.358Z,97551.88
2023-11-23T14:55:12.431Z,97546.28
2023-11-23T14:57:39.248Z,97548.97
2023-11-23T15:00:08.553Z,97548.41
2023-11-23T15:02:35.340Z,97547.19
2023-11-23T15:05:02.024Z,97538.47
2023-11-23T15:07:28.763Z,97535.09
2023-11-23T15:09:55.475Z,97536.25
2023-11-23T15:12:24.110Z,97527.53
2023-11-23T15:14:51.991Z,97529.78
2023-11-23T15:17:18.676Z,97530.50
2023-11-23T15:19:45.426Z,97534.81
2023-11-23T15:22:12.130Z,97538.13
2023-11-23T15:24:38.906Z,97533.69
2023-11-23T15:27:05.685Z,97538.09
2023-11-23T15:29:33.758Z,97550.44
2023-11-23T15:32:00.493Z,97546.84
2023-11-23T15:34:27.225Z,97553.81
2023-11-23T15:36:53.922Z,97552.28
2023-11-23T15:39:20.673Z,97547.50
2023-11-23T15:41:47.364Z,97544.06
2023-11-23T15:44:14.255Z,97534.88
2023-11-23T15:46:42.598Z,97540.47
2023-11-23T15:49:09.966Z,97542.16
2023-11-23T15:51:36.737Z,97547.00
2023-11-23T15:54:03.621Z,97542.63
2023-11-23T15:56:30.300Z,97551.84
2023-11-23T15:58:56.991Z,97554.59
2023-11-23T16:01:23.789Z,97556.41
2023-11-23T16:03:51.944Z,97555.81
2023-11-23T16:06:18.767Z,97544.47
2023-11-23T16:08:45.791Z,97551.75
2023-11-23T16:11:12.529Z,97550.13
2023-11-23T16:13:41.219Z,97550.63
2023-11-23T16:16:08.158Z,97552.88
2023-11-23T16:18:34.932Z,97556.72
2023-11-23T16:21:03.005Z,97551.16
2023-11-23T16:23:29.707Z,97549.22
2023-11-23T16:25:56.458Z,97555.09
2023-11-23T16:28:23.156Z,97551.75
2023-11-23T16:30:49.906Z,97558.44
2023-11-23T16:33:16.796Z,97552.88
2023-11-23T16:35:43.574Z,97563.19
2023-11-23T16:38:11.659Z,97563.03
2023-11-23T16:40:38.380Z,97556.88
2023-11-23T16:43:05.117Z,97555.47
2023-11-23T16:45:31.876Z,97558.50
2023-11-23T16:47:58.640Z,97562.88
2023-11-23T16:50:25.372Z,97570.56
2023-11-23T16:52:52.117Z,97574.13
2023-11-23T16:55:20.162Z,97570.03
2023-11-23T16:57:47.074Z,97574.28
2023-11-23T17:00:14.922Z,97571.84
2023-11-23T17:02:41.713Z,97575.00
2023-11-23T17:05:09.533Z,97577.28
2023-11-23T17:07:36.262Z,97577.06
2023-11-23T17:10:03.367Z,97566.47
2023-11-23T17:12:31.686Z,97570.97
2023-11-23T17:14:58.375Z,97576.53
2023-11-23T17:17:25.111Z,97592.97
2023-11-23T17:19:51.824Z,97591.81
2023-11-23T17:22:18.650Z,97584.53
2023-11-23T17:24:45.438Z,97583.94
2023-11-23T17:27:12.216Z,97581.25
2023-11-23T17:29:40.305Z,97582.34
2023-11-23T17:32:07.494Z,97576.63
2023-11-23T17:34:34.988Z,97584.03
2023-11-23T17:37:01.863Z,97593.38
2023-11-23T17:39:28.558Z,97596.09
2023-11-23T17:41:55.317Z,97593.03
2023-11-23T17:44:22.079Z,97582.22
2023-11-23T17:46:50.257Z,97580.97
2023-11-23T17:49:16.950Z,97582.41
2023-11-23T17:51:43.718Z,97592.28
2023-11-23T17:54:10.448Z,97581.66
2023-11-23T17:56:37.165Z,97576.56
2023-11-23T17:59:19.762Z,97565.50
2023-11-23T18:01:53.927Z,97573.56
2023-11-23T18:04:20.905Z,97577.88
2023-11-23T18:06:47.839Z,97580.34
2023-11-23T18:09:15.887Z,97576.47
2023-11-23T18:11:45.632Z,97572.41
2023-11-23T18:14:12.769Z,97566.47
2023-11-23T18:16:39.551Z,97567.72
2023-11-23T18:19:13.428Z,97579.41
2023-11-23T18:21:40.209Z,97578.00
2023-11-23T18:24:07.012Z,97581.06
2023-11-23T18:26:33.862Z,97582.91
2023-11-23T18:29:00.553Z,97580.91
2023-11-23T18:31:27.642Z,97586.00
2023-11-23T18:33:54.445Z,97586.44
2023-11-23T18:36:22.721Z,97587.47
2023-11-23T18:38:49.416Z,97589.78
2023-11-23T18:41:16.226Z,97585.06
2023-11-23T18:43:43.086Z,97580.31
2023-11-23T18:46:09.796Z,97575.03
2023-11-23T18:48:36.634Z,97573.81
2023-11-23T18:51:03.535Z,97577.28
2023-11-23T18:53:31.652Z,97564.56
2023-11-23T18:55:58.477Z,97559.88
2023-11-23T18:58:25.165Z,97555.34
2023-11-23T19:00:52.138Z,97553.72
2023-11-23T19:03:19.145Z,97556.38
2023-11-23T19:05:45.953Z,97562.31
2023-11-23T19:08:12.819Z,97554.53
2023-11-23T19:10:40.979Z,97558.25
2023-11-23T19:13:07.815Z,97564.16
2023-11-23T19:15:34.851Z,97555.16
2023-11-23T19:18:02.156Z,97554.34
2023-11-23T19:20:30.637Z,97549.06
2023-11-23T19:23:00.870Z,97564.19
2023-11-23T19:25:30.490Z,97566.03
2023-11-23T19:28:00.973Z,97570.75
2023-11-23T19:30:28.604Z,97567.06
2023-11-23T19:32:55.786Z,97557.47
2023-11-23T19:35:23.093Z,97566.88
2023-11-23T19:37:59.580Z,97566.25
2023-11-23T19:40:28.623Z,97562.13
2023-11-23T19:42:56.029Z,97565.44
2023-11-23T19:45:25.580Z,97550.91
2023-11-23T19:47:53.120Z,97537.41
2023-11-23T19:50:23.812Z,97534.75
2023-11-23T19:52:52.293Z,97533.34
2023-11-23T19:55:21.942Z,97534.97
2023-11-23T19:57:54.217Z,97525.75
2023-11-23T20:00:25.073Z,97531.28
2023-11-23T20:02:52.155Z,97529.66
2023-11-23T20:05:26.863Z,97518.00
2023-11-23T20:07:53.683Z,97527.81
2023-11-23T20:10:20.376Z,97530.47
2023-11-23T20:12:47.366Z,97535.38
2023-11-23T20:15:14.380Z,97528.63
2023-11-23T20:17:42.613Z,97539.00
2023-11-23T20:20:10.708Z,97540.06
2023-11-23T20:22:37.493Z,97541.91
2023-11-23T20:25:05.071Z,97550.72
2023-11-23T20:27:31.992Z,97539.47
2023-11-23T20:29:58.828Z,97540.69
2023-11-23T20:32:25.556Z,97532.91
2023-11-23T20:34:53.827Z,97532.50
2023-11-23T20:37:20.728Z,97528.41
2023-11-23T20:39:47.562Z,97522.69
2023-11-23T20:42:14.939Z,97521.47
2023-11-23T20:44:41.704Z,97510.63
2023-11-23T20:47:08.661Z,97509.81
2023-11-23T20:49:35.406Z,97524.31
2023-11-23T20:52:03.891Z,97517.56
2023-11-23T20:54:30.833Z,97511.81
2023-11-23T20:56:58.222Z,97515.72
2023-11-23T20:59:25.619Z,97511.63
2023-11-23T21:01:52.996Z,97511.47
2023-11-23T21:04:22.029Z,97512.44
2023-11-23T21:06:58.960Z,97505.31
2023-11-23T21:09:30.875Z,97501.41
2023-11-23T21:11:57.624Z,97500.78
2023-11-23T21:14:24.877Z,97497.28
2023-11-23T21:16:51.714Z,97490.53
2023-11-23T21:19:18.574Z,97501.94
2023-11-23T21:21:45.689Z,97492.31
2023-11-23T21:24:12.605Z,97494.56
2023-11-23T21:26:40.627Z,97497.63
2023-11-23T21:29:10.301Z,97493.09
2023-11-23T21:31:37.142Z,97481.25
2023-11-23T21:34:03.978Z,97469.22
2023-11-23T21:36:30.715Z,97460.84
2023-11-23T21:38:57.728Z,97451.25
2023-11-23T21:41:24.614Z,97448.59
2023-11-23T21:43:52.679Z,97451.69
2023-11-23T21:46:19.540Z,97448.44
2023-11-23T21:48:46.241Z,97455.59
2023-11-23T21:51:19.037Z,97456.19
2023-11-23T21:53:45.906Z,97457.84
2023-11-23T21:56:12.804Z,97442.94
2023-11-23T21:58:39.577Z,97441.72
2023-11-23T22:01:07.786Z,97445.41
2023-11-23T22:03:34.666Z,97449.69
2023-11-23T22:06:01.584Z,97446.00
2023-11-23T22:08:28.328Z,97438.25
2023-11-23T22:10:55.004Z,97441.50
2023-11-23T22:13:21.743Z,97432.13
2023-11-23T22:15:48.915Z,97436.41
2023-11-23T22:18:17.845Z,97435.19
2023-11-23T22:20:44.783Z,97435.00
2023-11-23T22:23:12.111Z,97433.78
2023-11-23T22:25:39.378Z,97426.81
2023-11-23T22:28:06.957Z,97420.28
2023-11-23T22:30:34.330Z,97420.69
2023-11-23T22:33:01.198Z,97431.53
2023-11-23T22:35:30.353Z,97422.94
2023-11-23T22:37:57.766Z,97419.06
2023-11-23T22:40:25.186Z,97423.16
2023-11-23T22:42:52.320Z,97404.94
2023-11-23T22:45:19.721Z,97405.38
2023-11-23T22:47:46.500Z,97407.19
2023-11-23T22:50:13.302Z,97409.66
2023-11-23T22:52:41.320Z,97407.41
2023-11-23T22:55:08.754Z,97393.94
2023-11-23T22:57:35.505Z,97384.94
2023-11-23T23:00:02.238Z,97384.72
2023-11-23T23:02:29.180Z,97387.78
2023-11-23T23:04:55.963Z,97389.44
2023-11-23T23:07:22.703Z,97390.03
2023-11-23T23:09:50.895Z,97396.78
2023-11-23T23:12:17.651Z,97395.53
2023-11-23T23:14:44.337Z,97395.97
2023-11-23T23:17:11.037Z,97398.22
2023-11-23T23:19:37.788Z,97399.22
2023-11-23T23:22:09.223Z,97383.28
2023-11-23T23:24:40.722Z,97399.63
2023-11-23T23:27:08.751Z,97401.09
2023-11-23T23:29:35.521Z,97380.22
2023-11-23T23:32:02.271Z,97384.50
2023-11-23T23:34:29.138Z,97385.97
2023-11-23T23:36:55.952Z,97372.03
2023-11-23T23:39:22.697Z,97364.47
2023-11-23T23:41:49.440Z,97379.19
2023-11-23T23:44:17.496Z,97381.44
2023-11-23T23:46:44.185Z,97382.28
2023-11-23T23:49:10.897Z,97378.38
2023-11-23T23:51:37.608Z,97370.19
2023-11-23T23:54:04.455Z,97361.03
2023-11-23T23:56:31.187Z,97368.38
2023-11-23T23:58:57.954Z,97375.50
